createdAt,value
2023-03-15T00:01:00.778Z,99920.59
2023-03-15T00:02:03.587Z,99923.31
2023-03-15T00:03:06.199Z,99917.00
2023-03-15T00:04:08.559Z,99917.66
2023-03-15T00:05:13.961Z,99918.53
2023-03-15T00:06:16.169Z,99920.31
2023-03-15T00:07:18.372Z,99921.25
2023-03-15T00:08:21.897Z,99930.84
2023-03-15T00:09:24.523Z,99932.78
2023-03-15T00:10:26.737Z,99934.69
2023-03-15T00:11:30.974Z,99941.75
2023-03-15T00:12:34.493Z,99936.50
2023-03-15T00:13:36.954Z,99939.09
2023-03-15T00:14:39.153Z,99939.97
2023-03-15T00:15:50.792Z,99941.97
2023-03-15T00:16:54.821Z,99941.13
2023-03-15T00:17:57.121Z,99946.53
2023-03-15T00:18:59.842Z,99939.53
2023-03-15T00:20:02.174Z,99943.94
2023-03-15T00:21:04.449Z,99944.03
2023-03-15T00:22:06.944Z,99944.97
2023-03-15T00:23:09.667Z,99946.84
2023-03-15T00:24:12.266Z,99953.97
2023-03-15T00:25:14.610Z,99958.47
2023-03-15T00:26:16.897Z,99960.22
2023-03-15T00:27:19.100Z,99964.56
2023-03-15T00:28:21.712Z,99967.06
2023-03-15T00:29:24.127Z,99973.03
2023-03-15T00:30:26.329Z,99974.59
2023-03-15T00:31:28.513Z,99973.72
2023-03-15T00:32:31.839Z,99974.75
2023-03-15T00:33:35.573Z,99976.63
2023-03-15T00:34:37.772Z,99978.34
2023-03-15T00:35:42.159Z,99975.59
2023-03-15T00:36:45.094Z,99976.56
2023-03-15T00:37:47.270Z,99972.34
2023-03-15T00:38:53.408Z,99979.53
2023-03-15T00:39:55.883Z,99984.91
2023-03-15T00:40:58.048Z,99981.34
2023-03-15T00:42:00.247Z,99987.50
2023-03-15T00:43:03.467Z,99987.47
2023-03-15T00:44:05.624Z,99989.16
2023-03-15T00:45:08.688Z,99985.81
2023-03-15T00:46:12.007Z,99992.72
2023-03-15T00:47:14.657Z,99991.00
2023-03-15T00:48:17.095Z,99997.34
2023-03-15T00:49:19.482Z,99996.38
2023-03-15T00:50:23.394Z,99997.34
2023-03-15T00:51:25.571Z,99993.78
2023-03-15T00:52:27.935Z,99998.19
2023-03-15T00:53:30.407Z,99999.06
2023-03-15T00:54:33.702Z,99998.06
2023-03-15T00:55:35.899Z,99999.56
2023-03-15T00:56:39.871Z,100000.59
2023-03-15T00:57:43.920Z,99997.13
2023-03-15T00:58:47.029Z,100001.47
2023-03-15T00:59:49.717Z,100006.59
2023-03-15T01:00:51.931Z,100002.06
2023-03-15T01:01:54.196Z,100002.91
2023-03-15T01:02:57.764Z,100000.53
2023-03-15T01:04:00.048Z,100004.22
2023-03-15T01:05:02.532Z,100001.63
2023-03-15T01:06:09.549Z,100005.22
2023-03-15T01:07:12.177Z,99998.97
2023-03-15T01:08:14.590Z,100001.63
2023-03-15T01:09:17.038Z,100011.28
2023-03-15T01:10:20.895Z,100010.34
2023-03-15T01:11:26.739Z,100006.94
2023-03-15T01:12:32.752Z,100013.22
2023-03-15T01:13:35.735Z,100007.84
2023-03-15T01:14:39.065Z,100011.34
2023-03-15T01:15:46.239Z,100020.22
2023-03-15T01:16:48.464Z,100015.00
2023-03-15T01:17:50.815Z,100016.78
2023-03-15T01:18:54.353Z,100015.88
2023-03-15T01:19:56.577Z,100016.84
2023-03-15T01:21:00.088Z,100020.53
2023-03-15T01:22:02.284Z,100014.28
2023-03-15T01:23:04.623Z,100021.13
2023-03-15T01:24:07.693Z,100009.53
2023-03-15T01:25:10.731Z,100019.13
2023-03-15T01:26:15.084Z,100029.91
2023-03-15T01:27:19.051Z,100026.28
2023-03-15T01:28:21.250Z,100029.78
2023-03-15T01:29:23.608Z,100031.50
2023-03-15T01:30:26.034Z,100031.50
2023-03-15T01:31:30.456Z,100029.06
2023-03-15T01:32:32.984Z,100029.06
2023-03-15T01:33:35.275Z,100033.50
2023-03-15T01:34:37.716Z,100036.16
2023-03-15T01:35:40.198Z,100037.13
2023-03-15T01:36:42.361Z,100038.94
2023-03-15T01:37:44.815Z,100039.03
2023-03-15T01:38:47.263Z,100046.19
2023-03-15T01:39:51.647Z,100046.09
2023-03-15T01:40:54.218Z,100050.44
2023-03-15T01:41:56.466Z,100059.31
2023-03-15T01:43:04.609Z,100056.69
2023-03-15T01:44:15.951Z,100056.59
2023-03-15T01:46:01.857Z,100060.94
2023-03-15T01:47:06.762Z,100058.22
2023-03-15T01:48:12.144Z,100065.22
2023-03-15T01:49:34.863Z,100052.13
2023-03-15T01:50:39.067Z,100062.63
2023-03-15T01:52:13.813Z,100070.66
2023-03-15T01:53:30.238Z,100072.44
2023-03-15T01:55:13.808Z,100069.81
2023-03-15T01:56:30.180Z,100077.03
2023-03-15T01:57:49.893Z,100076.84
2023-03-15T01:58:55.009Z,100071.38
2023-03-15T02:00:12.006Z,100074.03
2023-03-15T02:01:31.206Z,100077.72
2023-03-15T02:02:33.860Z,100077.06
2023-03-15T02:03:46.533Z,100074.41
2023-03-15T02:05:07.032Z,100077.06
2023-03-15T02:06:10.168Z,100082.38
2023-03-15T02:07:21.149Z,100079.81
2023-03-15T02:08:27.108Z,100075.47
2023-03-15T02:09:47.725Z,100079.94
2023-03-15T02:10:53.293Z,100074.63
2023-03-15T02:11:57.498Z,100076.38
2023-03-15T02:13:00.037Z,100081.63
2023-03-15T02:14:03.703Z,100080.84
2023-03-15T02:15:07.854Z,100092.31
2023-03-15T02:16:11.623Z,100084.34
2023-03-15T02:17:33.742Z,100079.97
2023-03-15T02:18:36.008Z,100091.50
2023-03-15T02:20:09.287Z,100088.88
2023-03-15T02:21:39.725Z,100081.78
2023-03-15T02:22:54.951Z,100091.50
2023-03-15T02:24:29.165Z,100088.88
2023-03-15T02:25:37.550Z,100087.16
2023-03-15T02:26:45.413Z,100093.28
2023-03-15T02:27:48.059Z,100096.75
2023-03-15T02:28:53.809Z,100085.22
2023-03-15T02:29:56.786Z,100096.59
2023-03-15T02:30:59.542Z,100091.34
2023-03-15T02:32:04.599Z,100083.47
2023-03-15T02:33:14.101Z,100090.53
2023-03-15T02:34:16.472Z,100091.41
2023-03-15T02:35:27.228Z,100093.22
2023-03-15T02:36:30.080Z,100095.91
2023-03-15T02:37:38.191Z,100089.75
2023-03-15T02:38:40.395Z,100093.28
2023-03-15T02:39:42.789Z,100095.00
2023-03-15T02:40:48.913Z,100092.31
2023-03-15T02:41:58.609Z,100086.03
2023-03-15T02:43:15.969Z,100098.22
2023-03-15T02:44:25.435Z,100086.97
2023-03-15T02:45:31.952Z,100092.25
2023-03-15T02:46:35.716Z,100096.63
2023-03-15T02:47:40.041Z,100090.47
2023-03-15T02:48:43.515Z,100096.47
2023-03-15T02:49:54.029Z,100092.06
2023-03-15T02:50:56.266Z,100094.91
2023-03-15T02:51:58.857Z,100103.84
2023-03-15T02:53:03.065Z,100103.97
2023-03-15T02:54:05.450Z,100106.50
2023-03-15T02:55:08.464Z,100103.75
2023-03-15T02:56:11.062Z,100109.09
2023-03-15T02:57:15.563Z,100106.44
2023-03-15T02:58:18.708Z,100110.94
2023-03-15T02:59:21.052Z,100113.59
2023-03-15T03:00:23.923Z,100113.56
2023-03-15T03:01:26.238Z,100107.47
2023-03-15T03:02:28.581Z,100106.69
2023-03-15T03:03:30.854Z,100113.72
2023-03-15T03:04:35.644Z,100119.84
2023-03-15T03:05:37.833Z,100123.31
2023-03-15T03:06:43.126Z,100120.72
2023-03-15T03:07:47.426Z,100127.78
2023-03-15T03:08:49.780Z,100120.63
2023-03-15T03:09:55.698Z,100130.28
2023-03-15T03:10:58.307Z,100126.72
2023-03-15T03:12:00.590Z,100125.06
2023-03-15T03:13:03.951Z,100126.03
2023-03-15T03:14:14.171Z,100128.66
2023-03-15T03:15:17.715Z,100135.56
2023-03-15T03:16:23.118Z,100136.41
2023-03-15T03:17:25.491Z,100143.53
2023-03-15T03:18:29.851Z,100140.94
2023-03-15T03:19:32.020Z,100141.78
2023-03-15T03:20:34.489Z,100140.84
2023-03-15T03:21:36.741Z,100140.84
2023-03-15T03:22:40.177Z,100144.34
2023-03-15T03:23:46.213Z,100145.41
2023-03-15T03:24:48.643Z,100148.94
2023-03-15T03:25:54.174Z,100141.03
2023-03-15T03:26:58.063Z,100146.28
2023-03-15T03:28:04.674Z,100153.22
2023-03-15T03:29:08.011Z,100149.63
2023-03-15T03:30:13.116Z,100145.19
2023-03-15T03:31:22.440Z,100150.47
2023-03-15T03:32:27.480Z,100151.41
2023-03-15T03:33:29.746Z,100150.44
2023-03-15T03:34:32.123Z,100157.63
2023-03-15T03:35:34.949Z,100153.19
2023-03-15T03:36:37.311Z,100151.50
2023-03-15T03:37:40.344Z,100153.34
2023-03-15T03:38:48.439Z,100150.72
2023-03-15T03:39:51.647Z,100156.13
2023-03-15T03:40:54.231Z,100161.41
2023-03-15T03:41:56.430Z,100164.06
2023-03-15T03:42:58.636Z,100157.91
2023-03-15T03:44:01.026Z,100167.56
2023-03-15T03:45:03.479Z,100168.34
2023-03-15T03:46:10.681Z,100171.94
2023-03-15T03:47:18.225Z,100172.00
2023-03-15T03:48:20.475Z,100177.34
2023-03-15T03:49:25.285Z,100172.06
2023-03-15T03:50:28.076Z,100172.00
2023-03-15T03:51:31.019Z,100172.72
2023-03-15T03:52:33.324Z,100178.06
2023-03-15T03:53:41.315Z,100175.41
2023-03-15T03:54:43.751Z,100171.06
2023-03-15T03:55:46.751Z,100174.63
2023-03-15T03:56:53.752Z,100183.47
2023-03-15T03:57:58.644Z,100178.22
2023-03-15T03:59:15.049Z,100177.25
2023-03-15T04:00:25.900Z,100180.84
2023-03-15T04:01:28.461Z,100186.97
2023-03-15T04:02:31.173Z,100186.19
2023-03-15T04:03:37.447Z,100183.47
2023-03-15T04:04:44.343Z,100179.06
2023-03-15T04:05:52.881Z,100183.41
2023-03-15T04:06:58.062Z,100173.84
2023-03-15T04:08:05.685Z,100173.84
2023-03-15T04:09:16.848Z,100178.13
2023-03-15T04:10:26.947Z,100190.47
2023-03-15T04:11:29.765Z,100180.84
2023-03-15T04:12:36.133Z,100183.56
2023-03-15T04:13:38.898Z,100180.03
2023-03-15T04:14:41.276Z,100180.91
2023-03-15T04:15:46.708Z,100181.78
2023-03-15T04:16:48.982Z,100184.34
2023-03-15T04:17:56.052Z,100184.34
2023-03-15T04:19:00.242Z,100184.41
2023-03-15T04:20:11.912Z,100187.84
2023-03-15T04:21:23.059Z,100187.06
2023-03-15T04:22:28.815Z,100195.03
2023-03-15T04:23:39.670Z,100197.66
2023-03-15T04:24:50.721Z,100195.88
2023-03-15T04:26:16.185Z,100201.03
2023-03-15T04:28:00.351Z,100194.88
2023-03-15T04:29:17.615Z,100199.38
2023-03-15T04:30:58.733Z,100192.09
2023-03-15T04:32:18.167Z,100204.44
2023-03-15T04:33:37.912Z,100212.44
2023-03-15T04:34:40.155Z,100201.03
2023-03-15T04:35:58.536Z,100207.28
2023-03-15T04:37:03.896Z,100209.81
2023-03-15T04:38:14.774Z,100215.81
2023-03-15T04:39:36.349Z,100214.06
2023-03-15T04:40:50.130Z,100214.88
2023-03-15T04:42:00.015Z,100214.00
2023-03-15T04:43:14.811Z,100210.50
2023-03-15T04:44:37.942Z,100214.94
2023-03-15T04:45:40.410Z,100214.16
2023-03-15T04:46:56.509Z,100215.97
2023-03-15T04:48:21.833Z,100223.06
2023-03-15T04:49:43.729Z,100225.63
2023-03-15T04:50:58.274Z,100215.94
2023-03-15T04:52:15.228Z,100221.22
2023-03-15T04:53:28.592Z,100222.16
2023-03-15T04:54:49.906Z,100221.31
2023-03-15T04:56:10.941Z,100226.50
2023-03-15T04:57:33.373Z,100232.69
2023-03-15T04:58:59.679Z,100224.72
2023-03-15T05:00:25.265Z,100222.16
2023-03-15T05:01:42.784Z,100222.22
2023-03-15T05:02:55.109Z,100226.59
2023-03-15T05:04:16.450Z,100228.28
2023-03-15T05:05:41.858Z,100235.28
2023-03-15T05:07:08.979Z,100237.78
2023-03-15T05:08:25.290Z,100238.78
2023-03-15T05:09:53.561Z,100239.78
2023-03-15T05:11:09.985Z,100239.78
2023-03-15T05:12:27.756Z,100243.13
2023-03-15T05:13:48.652Z,100244.88
2023-03-15T05:15:14.115Z,100236.94
2023-03-15T05:16:34.888Z,100244.97
2023-03-15T05:17:49.185Z,100247.56
2023-03-15T05:19:09.939Z,100250.06
2023-03-15T05:20:34.304Z,100247.44
2023-03-15T05:21:51.506Z,100258.00
2023-03-15T05:23:13.928Z,100251.84
2023-03-15T05:24:22.154Z,100258.91
2023-03-15T05:25:50.411Z,100263.41
2023-03-15T05:27:18.677Z,100270.41
2023-03-15T05:28:32.413Z,100266.84
2023-03-15T05:29:34.563Z,100270.41
2023-03-15T05:31:00.762Z,100274.88
2023-03-15T05:32:16.029Z,100281.03
2023-03-15T05:33:35.071Z,100285.53
2023-03-15T05:35:05.153Z,100284.66
2023-03-15T05:36:17.495Z,100288.94
2023-03-15T05:37:45.780Z,100290.69
2023-03-15T05:39:03.296Z,100289.00
2023-03-15T05:40:30.603Z,100301.41
2023-03-15T05:42:10.979Z,100299.63
2023-03-15T05:43:33.243Z,100299.56
2023-03-15T05:44:54.575Z,100304.00
2023-03-15T05:46:05.442Z,100304.88
2023-03-15T05:47:32.451Z,100303.13
2023-03-15T05:48:42.920Z,100309.28
2023-03-15T05:50:05.248Z,100315.41
2023-03-15T05:51:27.708Z,100313.59
2023-03-15T05:52:43.591Z,100319.72
2023-03-15T05:54:06.513Z,100318.75
2023-03-15T05:55:18.774Z,100321.38
2023-03-15T05:56:30.251Z,100324.03
2023-03-15T05:57:52.768Z,100331.94
2023-03-15T05:59:24.164Z,100332.78
2023-03-15T06:00:45.397Z,100331.94
2023-03-15T06:02:00.875Z,100333.66
2023-03-15T06:03:10.775Z,100331.94
2023-03-15T06:04:24.670Z,100336.25
2023-03-15T06:05:27.348Z,100337.88
2023-03-15T06:06:33.726Z,100335.25
2023-03-15T06:07:37.634Z,100341.44
2023-03-15T06:08:40.451Z,100338.81
2023-03-15T06:09:42.706Z,100340.59
2023-03-15T06:10:45.589Z,100345.81
2023-03-15T06:11:48.504Z,100351.09
2023-03-15T06:12:52.245Z,100337.03
2023-03-15T06:13:54.553Z,100345.00
2023-03-15T06:15:12.433Z,100341.41
2023-03-15T06:16:15.091Z,100349.25
2023-03-15T06:17:20.619Z,100354.53
2023-03-15T06:18:24.130Z,100356.31
2023-03-15T06:19:26.813Z,100349.25
2023-03-15T06:20:31.330Z,100354.53
2023-03-15T06:21:39.632Z,100356.16
2023-03-15T06:22:47.736Z,100353.47
2023-03-15T06:24:02.636Z,100356.97
2023-03-15T06:25:05.301Z,100364.88
2023-03-15T06:26:08.059Z,100365.75
2023-03-15T06:27:10.872Z,100361.31
2023-03-15T06:28:13.079Z,100360.38
2023-03-15T06:29:22.263Z,100365.75
2023-03-15T06:30:26.167Z,100363.03
2023-03-15T06:31:31.804Z,100365.69
2023-03-15T06:32:39.788Z,100363.81
2023-03-15T06:33:42.059Z,100369.72
2023-03-15T06:34:46.231Z,100363.63
2023-03-15T06:35:50.739Z,100374.16
2023-03-15T06:36:53.141Z,100369.72
2023-03-15T06:37:55.419Z,100372.28
2023-03-15T06:38:57.787Z,100373.16
2023-03-15T06:40:00.499Z,100370.47
2023-03-15T06:41:05.164Z,100373.09
2023-03-15T06:42:09.884Z,100379.31
2023-03-15T06:43:19.408Z,100376.72
2023-03-15T06:44:21.716Z,100378.34
2023-03-15T06:45:31.705Z,100383.47
2023-03-15T06:46:34.532Z,100382.69
2023-03-15T06:47:37.194Z,100378.28
2023-03-15T06:48:40.130Z,100386.19
2023-03-15T06:49:44.694Z,100387.16
2023-03-15T06:50:48.212Z,100395.06
2023-03-15T06:51:51.291Z,100392.34
2023-03-15T06:52:53.496Z,100398.47
2023-03-15T06:53:55.898Z,100402.06
2023-03-15T06:54:58.566Z,100403.94
2023-03-15T06:56:00.813Z,100409.06
2023-03-15T06:57:03.686Z,100406.34
2023-03-15T06:58:06.096Z,100408.88
2023-03-15T06:59:08.261Z,100408.03
2023-03-15T07:00:11.614Z,100416.72
2023-03-15T07:01:14.768Z,100417.63
2023-03-15T07:02:18.765Z,100421.19
2023-03-15T07:03:22.397Z,100414.94
2023-03-15T07:04:24.608Z,100418.38
2023-03-15T07:05:26.827Z,100419.22
2023-03-15T07:06:29.347Z,100419.13
2023-03-15T07:07:31.575Z,100419.13
2023-03-15T07:08:33.983Z,100416.56
2023-03-15T07:09:36.197Z,100426.22
2023-03-15T07:10:38.387Z,100424.34
2023-03-15T07:11:40.636Z,100418.06
2023-03-15T07:12:42.910Z,100424.97
2023-03-15T07:13:45.321Z,100420.41
2023-03-15T07:14:47.585Z,100419.19
2023-03-15T07:15:54.298Z,100416.72
2023-03-15T07:16:56.808Z,100414.22
2023-03-15T07:17:59.422Z,100421.63
2023-03-15T07:19:02.420Z,100424.59
2023-03-15T07:20:08.214Z,100420.56
2023-03-15T07:21:10.427Z,100434.16
2023-03-15T07:22:12.819Z,100431.81
2023-03-15T07:23:15.202Z,100426.88
2023-03-15T07:24:17.730Z,100427.25
2023-03-15T07:25:24.079Z,100429.41
2023-03-15T07:26:26.465Z,100426.78
2023-03-15T07:27:29.379Z,100431.47
2023-03-15T07:28:31.630Z,100437.63
2023-03-15T07:29:33.867Z,100443.56
2023-03-15T07:30:36.081Z,100434.44
2023-03-15T07:31:38.276Z,100431.47
2023-03-15T07:32:40.696Z,100436.69
2023-03-15T07:33:43.300Z,100436.88
2023-03-15T07:34:45.552Z,100434.22
2023-03-15T07:35:48.148Z,100436.69
2023-03-15T07:36:50.398Z,100438.28
2023-03-15T07:37:52.872Z,100441.50
2023-03-15T07:38:55.300Z,100442.09
2023-03-15T07:40:00.267Z,100439.53
2023-03-15T07:41:04.357Z,100441.69
2023-03-15T07:42:07.338Z,100441.03
2023-03-15T07:43:15.946Z,100447.66
2023-03-15T07:44:18.916Z,100448.84
2023-03-15T07:45:21.128Z,100454.66
2023-03-15T07:46:23.401Z,100454.03
2023-03-15T07:47:25.646Z,100459.28
2023-03-15T07:48:29.474Z,100458.31
2023-03-15T07:49:32.063Z,100454.91
2023-03-15T07:50:34.530Z,100460.72
2023-03-15T07:51:36.925Z,100451.28
2023-03-15T07:52:39.347Z,100461.69
2023-03-15T07:53:41.554Z,100461.91
2023-03-15T07:54:43.755Z,100465.19
2023-03-15T07:55:48.028Z,100464.53
2023-03-15T07:56:50.443Z,100464.22
2023-03-15T07:57:53.368Z,100464.41
2023-03-15T07:58:56.506Z,100464.53
2023-03-15T07:59:59.119Z,100458.88
2023-03-15T08:01:01.325Z,100468.94
2023-03-15T08:02:03.586Z,100479.00
2023-03-15T08:03:07.250Z,100478.81
2023-03-15T08:04:09.882Z,100477.50
2023-03-15T08:05:12.239Z,100478.50
2023-03-15T08:06:14.494Z,100485.72
2023-03-15T08:07:16.901Z,100483.09
2023-03-15T08:08:19.449Z,100484.94
2023-03-15T08:09:21.916Z,100478.66
2023-03-15T08:10:24.172Z,100482.00
2023-03-15T08:11:26.362Z,100488.75
2023-03-15T08:12:30.093Z,100486.75
2023-03-15T08:13:32.932Z,100483.94
2023-03-15T08:14:35.564Z,100482.94
2023-03-15T08:15:38.017Z,100486.34
2023-03-15T08:16:40.303Z,100491.53
2023-03-15T08:17:42.926Z,100495.81
2023-03-15T08:18:45.304Z,100487.00
2023-03-15T08:19:47.718Z,100493.38
2023-03-15T08:20:49.966Z,100489.81
2023-03-15T08:21:53.860Z,100485.53
2023-03-15T08:22:56.069Z,100488.34
2023-03-15T08:23:58.444Z,100488.50
2023-03-15T08:25:01.152Z,100493.84
2023-03-15T08:26:03.361Z,100492.75
2023-03-15T08:27:05.827Z,100491.19
2023-03-15T08:28:08.149Z,100495.75
2023-03-15T08:29:11.077Z,100497.56
2023-03-15T08:30:14.854Z,100493.16
2023-03-15T08:31:17.506Z,100498.88
2023-03-15T08:32:20.192Z,100500.56
2023-03-15T08:33:22.527Z,100505.69
2023-03-15T08:34:25.524Z,100509.94
2023-03-15T08:35:28.288Z,100501.28
2023-03-15T08:36:32.598Z,100517.22
2023-03-15T08:37:35.437Z,100518.97
2023-03-15T08:38:37.875Z,100518.69
2023-03-15T08:39:40.180Z,100524.44
2023-03-15T08:40:42.942Z,100514.22
2023-03-15T08:41:47.366Z,100517.66
2023-03-15T08:42:49.882Z,100519.38
2023-03-15T08:43:52.386Z,100513.38
2023-03-15T08:44:54.755Z,100518.03
2023-03-15T08:46:01.182Z,100518.88
2023-03-15T08:47:05.213Z,100521.47
2023-03-15T08:48:07.450Z,100521.13
2023-03-15T08:49:09.891Z,100523.28
2023-03-15T08:50:14.483Z,100528.16
2023-03-15T08:51:16.713Z,100531.75
2023-03-15T08:52:37.550Z,100527.72
2023-03-15T08:53:40.063Z,100530.44
2023-03-15T08:54:42.438Z,100529.88
2023-03-15T08:55:44.804Z,100541.19
2023-03-15T08:56:47.063Z,100538.25
2023-03-15T08:57:49.679Z,100536.94
2023-03-15T08:58:51.982Z,100539.84
2023-03-15T08:59:54.546Z,100539.31
2023-03-15T09:00:57.615Z,100532.13
2023-03-15T09:02:01.334Z,100541.03
2023-03-15T09:03:04.327Z,100536.94
2023-03-15T09:04:06.841Z,100532.38
2023-03-15T09:05:11.915Z,100539.59
2023-03-15T09:06:37.378Z,100548.81
2023-03-15T09:07:42.775Z,100545.25
2023-03-15T09:08:45.132Z,100541.25
2023-03-15T09:09:48.149Z,100532.03
2023-03-15T09:10:54.436Z,100538.31
2023-03-15T09:11:56.663Z,100541.56
2023-03-15T09:12:58.956Z,100540.19
2023-03-15T09:14:01.775Z,100543.09
2023-03-15T09:15:05.563Z,100551.78
2023-03-15T09:16:09.824Z,100551.06
2023-03-15T09:17:12.123Z,100540.66
2023-03-15T09:18:14.610Z,100545.94
2023-03-15T09:19:17.053Z,100549.94
2023-03-15T09:20:22.350Z,100549.13
2023-03-15T09:21:25.390Z,100552.19
2023-03-15T09:22:38.910Z,100559.59
2023-03-15T09:23:42.014Z,100557.53
2023-03-15T09:24:44.448Z,100551.53
2023-03-15T09:25:46.662Z,100546.28
2023-03-15T09:26:48.969Z,100562.31
2023-03-15T09:27:51.457Z,100554.28
2023-03-15T09:28:53.773Z,100565.03
2023-03-15T09:29:56.165Z,100567.00
2023-03-15T09:31:00.000Z,100561.91
2023-03-15T09:32:02.397Z,100567.91
2023-03-15T09:33:04.671Z,100570.09
2023-03-15T09:34:08.185Z,100579.88
2023-03-15T09:35:14.450Z,100572.41
2023-03-15T09:36:16.710Z,100572.06
2023-03-15T09:37:20.690Z,100575.75
2023-03-15T09:38:24.120Z,100571.34
2023-03-15T09:39:26.904Z,100579.75
2023-03-15T09:40:32.182Z,100580.75
2023-03-15T09:41:41.468Z,100576.38
2023-03-15T09:43:01.578Z,100576.56
2023-03-15T09:44:13.498Z,100574.63
2023-03-15T09:45:50.794Z,100577.34
2023-03-15T09:47:12.051Z,100583.50
2023-03-15T09:48:33.277Z,100570.69
2023-03-15T09:49:35.383Z,100587.56
2023-03-15T09:50:51.641Z,100591.03
2023-03-15T09:52:15.370Z,100596.69
2023-03-15T09:53:28.295Z,100589.94
2023-03-15T09:54:54.107Z,100587.22
2023-03-15T09:55:57.245Z,100588.03
2023-03-15T09:57:09.572Z,100587.88
2023-03-15T09:58:19.510Z,100600.06
2023-03-15T09:59:26.693Z,100596.34
2023-03-15T10:00:45.594Z,100595.19
2023-03-15T10:01:48.176Z,100597.22
2023-03-15T10:03:01.558Z,100603.16
2023-03-15T10:04:13.227Z,100604.06
2023-03-15T10:05:22.547Z,100600.53
2023-03-15T10:06:30.328Z,100599.38
2023-03-15T10:07:33.001Z,100602.88
2023-03-15T10:08:35.446Z,100610.81
2023-03-15T10:09:37.961Z,100616.38
2023-03-15T10:10:48.917Z,100622.31
2023-03-15T10:11:54.030Z,100615.88
2023-03-15T10:13:22.247Z,100616.28
2023-03-15T10:14:57.349Z,100610.44
2023-03-15T10:16:30.562Z,100620.38
2023-03-15T10:17:47.629Z,100617.44
2023-03-15T10:19:46.007Z,100629.72
2023-03-15T10:21:02.391Z,100621.69
2023-03-15T10:22:12.942Z,100620.78
2023-03-15T10:23:31.020Z,100621.31
2023-03-15T10:25:10.512Z,100624.66
2023-03-15T10:26:17.163Z,100622.66
2023-03-15T10:27:26.442Z,100622.72
2023-03-15T10:28:33.861Z,100629.84
2023-03-15T10:29:38.862Z,100622.78
2023-03-15T10:30:47.620Z,100623.53
2023-03-15T10:31:52.704Z,100627.03
2023-03-15T10:33:01.811Z,100626.44
2023-03-15T10:34:04.444Z,100622.09
2023-03-15T10:35:15.578Z,100624.31
2023-03-15T10:36:21.082Z,100624.38
2023-03-15T10:37:26.671Z,100625.56
2023-03-15T10:38:29.147Z,100623.94
2023-03-15T10:39:31.847Z,100627.06
2023-03-15T10:40:50.923Z,100630.16
2023-03-15T10:41:53.360Z,100626.59
2023-03-15T10:42:58.037Z,100626.28
2023-03-15T10:44:03.186Z,100623.22
2023-03-15T10:45:23.589Z,100626.41
2023-03-15T10:46:26.325Z,100627.84
2023-03-15T10:47:28.601Z,100625.09
2023-03-15T10:48:33.588Z,100624.13
2023-03-15T10:49:41.121Z,100624.13
2023-03-15T10:50:43.361Z,100630.41
2023-03-15T10:51:47.775Z,100627.44
2023-03-15T10:52:51.534Z,100632.59
2023-03-15T10:53:57.195Z,100635.16
2023-03-15T10:55:04.695Z,100638.78
2023-03-15T10:56:13.617Z,100632.63
2023-03-15T10:57:20.021Z,100625.50
2023-03-15T10:58:31.341Z,100636.97
2023-03-15T10:59:35.644Z,100637.78
2023-03-15T11:00:37.906Z,100629.97
2023-03-15T11:01:40.867Z,100632.22
2023-03-15T11:03:02.343Z,100629.78
2023-03-15T11:04:16.443Z,100635.00
2023-03-15T11:05:20.012Z,100636.69
2023-03-15T11:06:26.902Z,100641.88
2023-03-15T11:07:29.879Z,100635.41
2023-03-15T11:08:42.338Z,100640.44
2023-03-15T11:09:51.905Z,100635.72
2023-03-15T11:10:59.769Z,100632.97
2023-03-15T11:12:05.102Z,100630.78
2023-03-15T11:13:24.429Z,100635.75
2023-03-15T11:14:37.562Z,100636.75
2023-03-15T11:15:47.414Z,100636.69
2023-03-15T11:16:54.044Z,100636.75
2023-03-15T11:17:57.849Z,100634.03
2023-03-15T11:19:03.586Z,100630.31
2023-03-15T11:20:34.033Z,100633.59
2023-03-15T11:21:38.398Z,100632.75
2023-03-15T11:22:40.573Z,100633.72
2023-03-15T11:23:48.153Z,100623.94
2023-03-15T11:24:54.664Z,100635.38
2023-03-15T11:25:58.103Z,100630.09
2023-03-15T11:27:03.489Z,100628.72
2023-03-15T11:28:06.201Z,100631.34
2023-03-15T11:29:27.019Z,100621.41
2023-03-15T11:30:34.049Z,100622.25
2023-03-15T11:31:36.809Z,100617.00
2023-03-15T11:32:40.013Z,100629.47
2023-03-15T11:33:54.852Z,100613.38
2023-03-15T11:35:04.654Z,100618.47
2023-03-15T11:36:13.352Z,100615.34
2023-03-15T11:37:21.760Z,100616.97
2023-03-15T11:38:37.677Z,100616.28
2023-03-15T11:40:05.054Z,100615.28
2023-03-15T11:41:35.485Z,100615.22
2023-03-15T11:42:49.571Z,100614.06
2023-03-15T11:44:06.558Z,100614.22
2023-03-15T11:45:37.190Z,100616.81
2023-03-15T11:47:14.017Z,100615.59
2023-03-15T11:48:48.520Z,100612.72
2023-03-15T11:49:56.205Z,100611.13
2023-03-15T11:50:59.613Z,100609.72
2023-03-15T11:52:02.257Z,100605.09
2023-03-15T11:53:06.937Z,100603.97
2023-03-15T11:54:14.760Z,100604.34
2023-03-15T11:55:25.059Z,100607.69
2023-03-15T11:56:45.332Z,100602.97
2023-03-15T11:57:49.631Z,100593.69
2023-03-15T11:59:28.252Z,100600.63
2023-03-15T12:00:36.623Z,100598.03
2023-03-15T12:02:11.014Z,100599.00
2023-03-15T12:03:28.304Z,100599.16
2023-03-15T12:04:34.525Z,100603.03
2023-03-15T12:05:59.198Z,100605.88
2023-03-15T12:07:04.678Z,100602.94
2023-03-15T12:08:42.561Z,100602.00
2023-03-15T12:10:04.083Z,100607.88
2023-03-15T12:11:33.066Z,100607.81
2023-03-15T12:12:36.849Z,100603.69
2023-03-15T12:14:03.892Z,100603.91
2023-03-15T12:15:15.275Z,100607.03
2023-03-15T12:16:21.241Z,100604.88
2023-03-15T12:17:29.338Z,100600.13
2023-03-15T12:18:38.640Z,100606.97
2023-03-15T12:19:41.167Z,100605.06
2023-03-15T12:20:51.353Z,100603.94
2023-03-15T12:21:57.514Z,100607.44
2023-03-15T12:23:19.286Z,100608.88
2023-03-15T12:24:29.166Z,100605.47
2023-03-15T12:25:45.429Z,100608.22
2023-03-15T12:27:07.454Z,100617.78
2023-03-15T12:28:19.531Z,100613.44
2023-03-15T12:29:28.085Z,100606.44
2023-03-15T12:30:33.966Z,100615.59
2023-03-15T12:31:54.856Z,100610.97
2023-03-15T12:32:57.951Z,100609.28
2023-03-15T12:34:04.342Z,100603.72
2023-03-15T12:35:15.947Z,100605.16
2023-03-15T12:36:36.022Z,100602.44
2023-03-15T12:37:45.535Z,100601.38
2023-03-15T12:39:00.694Z,100597.59
2023-03-15T12:40:15.089Z,100601.56
2023-03-15T12:41:41.131Z,100607.91
2023-03-15T12:42:59.435Z,100601.88
2023-03-15T12:44:26.835Z,100607.63
2023-03-15T12:45:47.237Z,100613.63
2023-03-15T12:46:49.724Z,100603.16
2023-03-15T12:47:51.867Z,100614.00
2023-03-15T12:49:28.440Z,100610.28
2023-03-15T12:50:36.971Z,100615.47
2023-03-15T12:51:59.272Z,100611.28
2023-03-15T12:53:39.029Z,100605.09
2023-03-15T12:54:49.849Z,100616.56
2023-03-15T12:55:59.577Z,100610.31
2023-03-15T12:57:13.110Z,100614.78
2023-03-15T12:58:17.658Z,100617.22
2023-03-15T12:59:29.319Z,100616.38
2023-03-15T13:00:43.513Z,100618.94